createdAt,value
2022-11-24T00:01:07.438Z,100324.97
2022-11-24T00:03:39.705Z,100326.66
2022-11-24T00:06:16.196Z,100332.03
2022-11-24T00:08:48.271Z,100320.09
2022-11-24T00:11:25.996Z,100320.94
2022-11-24T00:13:58.644Z,100333.72
2022-11-24T00:16:35.433Z,100331.84
2022-11-24T00:19:09.318Z,100332.88
2022-11-24T00:21:41.268Z,100330.00
2022-11-24T00:24:13.229Z,100338.72
2022-11-24T00:26:45.191Z,100335.38
2022-11-24T00:29:17.166Z,100346.09
2022-11-24T00:31:49.101Z,100339.91
2022-11-24T00:34:21.098Z,100343.78
2022-11-24T00:36:53.005Z,100344.63
2022-11-24T00:39:25.924Z,100342.94
2022-11-24T00:41:57.855Z,100341.44
2022-11-24T00:44:30.054Z,100347.81
2022-11-24T00:47:02.137Z,100350.69
2022-11-24T00:49:34.217Z,100350.84
2022-11-24T00:52:06.371Z,100354.56
2022-11-24T00:54:38.320Z,100358.25
2022-11-24T00:57:10.379Z,100367.31
2022-11-24T00:59:42.285Z,100360.25
2022-11-24T01:02:14.232Z,100365.63
2022-11-24T01:04:46.310Z,100370.34
2022-11-24T01:07:18.273Z,100374.19
2022-11-24T01:09:50.322Z,100368.00
2022-11-24T01:12:22.255Z,100375.41
2022-11-24T01:14:54.320Z,100366.66
2022-11-24T01:17:26.942Z,100373.72
2022-11-24T01:19:59.003Z,100379.09
2022-11-24T01:22:31.015Z,100380.09
2022-11-24T01:25:03.154Z,100388.81
2022-11-24T01:27:35.347Z,100377.41
2022-11-24T01:30:08.304Z,100379.09
2022-11-24T01:32:40.283Z,100373.72
2022-11-24T01:35:12.195Z,100379.09
2022-11-24T01:37:44.343Z,100382.63
2022-11-24T01:40:16.478Z,100387.16
2022-11-24T01:42:50.662Z,100395.19
2022-11-24T01:45:40.762Z,100389.00
2022-11-24T01:48:27.484Z,100386.47
2022-11-24T01:51:24.389Z,100385.63
2022-11-24T01:54:09.423Z,100391.84
2022-11-24T01:56:44.235Z,100386.47
2022-11-24T01:59:17.802Z,100381.09
2022-11-24T02:01:51.204Z,100393.53
2022-11-24T02:04:26.406Z,100391.84
2022-11-24T02:06:59.979Z,100403.25
2022-11-24T02:09:43.813Z,100392.16
2022-11-24T02:12:15.935Z,100403.38
2022-11-24T02:14:48.168Z,100413.66
2022-11-24T02:17:20.268Z,100405.25
2022-11-24T02:20:00.007Z,100410.94
2022-11-24T02:23:02.918Z,100404.38
2022-11-24T02:25:46.469Z,100411.94
2022-11-24T02:28:20.359Z,100404.53
2022-11-24T02:30:53.038Z,100406.22
2022-11-24T02:33:26.099Z,100413.59
2022-11-24T02:35:58.281Z,100403.69
2022-11-24T02:38:35.056Z,100401.19
2022-11-24T02:41:11.448Z,100417.31
2022-11-24T02:43:48.617Z,100416.47
2022-11-24T02:46:21.477Z,100413.94
2022-11-24T02:48:53.563Z,100418.47
2022-11-24T02:51:25.608Z,100417.78
2022-11-24T02:53:57.641Z,100423.34
2022-11-24T02:56:29.569Z,100423.34
2022-11-24T02:59:01.656Z,100420.84
2022-11-24T03:01:33.671Z,100418.81
2022-11-24T03:04:05.815Z,100419.66
2022-11-24T03:06:38.113Z,100430.41
2022-11-24T03:09:11.417Z,100420.47
2022-11-24T03:11:43.409Z,100418.81
2022-11-24T03:14:15.519Z,100419.84
2022-11-24T03:16:47.466Z,100425.38
2022-11-24T03:19:19.464Z,100428.22
2022-11-24T03:21:51.557Z,100431.09
2022-11-24T03:24:23.592Z,100431.09
2022-11-24T03:26:55.556Z,100439.31
2022-11-24T03:29:27.651Z,100444.69
2022-11-24T03:31:59.703Z,100448.91
2022-11-24T03:34:33.151Z,100451.22
2022-11-24T03:37:05.354Z,100451.91
2022-11-24T03:39:37.242Z,100453.25
2022-11-24T03:42:09.239Z,100459.25
2022-11-24T03:44:41.690Z,100459.94
2022-11-24T03:47:13.687Z,100458.75
2022-11-24T03:49:45.789Z,100460.91
2022-11-24T03:52:17.935Z,100464.28
2022-11-24T03:54:49.829Z,100465.28
2022-11-24T03:57:21.852Z,100462.91
2022-11-24T03:59:53.923Z,100462.91
2022-11-24T04:02:25.897Z,100473.50
2022-11-24T04:04:59.156Z,100471.31
2022-11-24T04:07:31.137Z,100484.41
2022-11-24T04:10:03.359Z,100482.38
2022-11-24T04:12:44.495Z,100488.44
2022-11-24T04:15:18.819Z,100494.44
2022-11-24T04:17:51.053Z,100505.03
2022-11-24T04:20:23.287Z,100495.81
2022-11-24T04:22:55.379Z,100498.50
2022-11-24T04:25:27.397Z,100496.81
2022-11-24T04:27:59.339Z,100503.19
2022-11-24T04:30:31.356Z,100511.25
2022-11-24T04:33:03.353Z,100503.34
2022-11-24T04:35:35.420Z,100506.72
2022-11-24T04:38:07.527Z,100507.56
2022-11-24T04:40:39.438Z,100512.94
2022-11-24T04:43:12.143Z,100515.63
2022-11-24T04:45:44.095Z,100513.59
2022-11-24T04:48:15.944Z,100524.19
2022-11-24T04:50:48.152Z,100513.28
2022-11-24T04:53:20.303Z,100525.72
2022-11-24T04:55:52.200Z,100523.03
2022-11-24T04:58:24.134Z,100527.34
2022-11-24T05:00:56.051Z,100529.88
2022-11-24T05:03:27.986Z,100536.94
2022-11-24T05:06:00.113Z,100532.41
2022-11-24T05:08:32.258Z,100536.59
2022-11-24T05:11:05.842Z,100536.59
2022-11-24T05:13:37.653Z,100535.59
2022-11-24T05:16:09.630Z,100547.34
2022-11-24T05:18:41.630Z,100547.19
2022-11-24T05:21:13.494Z,100538.97
2022-11-24T05:23:45.631Z,100538.75
2022-11-24T05:26:17.481Z,100549.19
2022-11-24T05:28:49.275Z,100548.19
2022-11-24T05:31:21.197Z,100548.84
2022-11-24T05:33:53.089Z,100552.19
2022-11-24T05:36:43.661Z,100558.44
2022-11-24T05:39:15.493Z,100558.44
2022-11-24T05:41:47.418Z,100562.13
2022-11-24T05:44:19.241Z,100564.66
2022-11-24T05:46:51.370Z,100565.28
2022-11-24T05:49:23.206Z,100570.50
2022-11-24T05:51:55.176Z,100572.19
2022-11-24T05:54:27.055Z,100571.00
2022-11-24T05:56:59.069Z,100574.53
2022-11-24T05:59:30.939Z,100575.22
2022-11-24T06:02:03.459Z,100574.00
2022-11-24T06:04:37.080Z,100570.31
2022-11-24T06:07:10.499Z,100575.53
2022-11-24T06:09:45.304Z,100578.22
2022-11-24T06:12:17.364Z,100574.84
2022-11-24T06:14:49.185Z,100581.06
2022-11-24T06:17:20.995Z,100585.44
2022-11-24T06:19:52.855Z,100594.16
2022-11-24T06:22:24.886Z,100596.53
2022-11-24T06:24:56.771Z,100592.47
2022-11-24T06:27:28.808Z,100596.84
2022-11-24T06:30:00.759Z,100605.56
2022-11-24T06:32:32.741Z,100603.88
2022-11-24T06:35:04.885Z,100614.00
2022-11-24T06:37:37.358Z,100610.63
2022-11-24T06:40:09.749Z,100621.38
2022-11-24T06:42:41.695Z,100615.16
2022-11-24T06:45:13.595Z,100623.59
2022-11-24T06:47:45.777Z,100623.75
2022-11-24T06:50:17.707Z,100621.41
2022-11-24T06:52:49.649Z,100621.59
2022-11-24T06:55:21.476Z,100628.81
2022-11-24T06:57:53.332Z,100629.84
2022-11-24T07:00:25.262Z,100642.59
2022-11-24T07:02:58.554Z,100643.63
2022-11-24T07:05:30.701Z,100645.47
2022-11-24T07:08:02.562Z,100655.38
2022-11-24T07:10:34.498Z,100648.66
2022-11-24T07:13:09.198Z,100657.09
2022-11-24T07:15:41.038Z,100663.47
2022-11-24T07:18:12.865Z,100662.47
2022-11-24T07:20:44.805Z,100655.25
2022-11-24T07:23:16.621Z,100667.84
2022-11-24T07:25:48.594Z,100668.84
2022-11-24T07:28:20.395Z,100666.16
2022-11-24T07:30:52.422Z,100675.22
2022-11-24T07:33:27.812Z,100671.69
2022-11-24T07:36:00.448Z,100673.53
2022-11-24T07:38:33.175Z,100679.94
2022-11-24T07:41:08.293Z,100685.34
2022-11-24T07:43:40.348Z,100700.44
2022-11-24T07:46:13.903Z,100700.44
2022-11-24T07:48:46.396Z,100707.34
2022-11-24T07:51:18.336Z,100708.84
2022-11-24T07:53:50.163Z,100714.06
2022-11-24T07:56:21.940Z,100714.91
2022-11-24T07:58:53.855Z,100709.53
2022-11-24T08:01:25.852Z,100717.44
2022-11-24T08:03:57.767Z,100721.63
2022-11-24T08:06:37.499Z,100724.00
2022-11-24T08:09:12.633Z,100725.13
2022-11-24T08:11:44.691Z,100737.41
2022-11-24T08:14:16.702Z,100730.69
2022-11-24T08:16:48.641Z,100737.25
2022-11-24T08:19:21.924Z,100744.13
2022-11-24T08:21:53.763Z,100748.81
2022-11-24T08:24:27.111Z,100753.91
2022-11-24T08:26:59.469Z,100750.69
2022-11-24T08:29:31.815Z,100752.19
2022-11-24T08:32:03.998Z,100750.81
2022-11-24T08:34:36.044Z,100754.19
2022-11-24T08:37:08.129Z,100752.19
2022-11-24T08:39:40.010Z,100757.56
2022-11-24T08:42:11.940Z,100759.22
2022-11-24T08:44:43.888Z,100759.22
2022-11-24T08:47:16.146Z,100765.13
2022-11-24T08:49:48.018Z,100769.31
2022-11-24T08:52:19.823Z,100763.66
2022-11-24T08:54:51.706Z,100764.13
2022-11-24T08:57:24.687Z,100771.69
2022-11-24T08:59:56.647Z,100776.41
2022-11-24T09:02:28.715Z,100770.66
2022-11-24T09:05:00.613Z,100780.06
2022-11-24T09:07:32.845Z,100779.53
2022-11-24T09:10:05.141Z,100778.00
2022-11-24T09:12:37.044Z,100782.72
2022-11-24T09:15:09.105Z,100783.41
2022-11-24T09:17:41.026Z,100784.03
2022-11-24T09:20:12.938Z,100788.25
2022-11-24T09:22:44.916Z,100799.53
2022-11-24T09:25:17.281Z,100798.16
2022-11-24T09:27:50.547Z,100803.22
2022-11-24T09:30:23.210Z,100801.16
2022-11-24T09:32:58.201Z,100803.53
2022-11-24T09:35:30.039Z,100810.25
2022-11-24T09:38:02.146Z,100801.81
2022-11-24T09:40:34.078Z,100803.13
2022-11-24T09:43:12.859Z,100811.72
2022-11-24T09:46:06.196Z,100806.81
2022-11-24T09:48:40.946Z,100805.09
2022-11-24T09:51:14.453Z,100807.44
2022-11-24T09:53:53.611Z,100815.19
2022-11-24T09:56:28.534Z,100815.84
2022-11-24T09:59:03.768Z,100813.47
2022-11-24T10:01:37.332Z,100811.72
2022-11-24T10:04:22.914Z,100805.63
2022-11-24T10:07:05.963Z,100807.63
2022-11-24T10:09:37.740Z,100821.91
2022-11-24T10:12:38.039Z,100822.41
2022-11-24T10:15:33.889Z,100815.44
2022-11-24T10:18:42.506Z,100819.63
2022-11-24T10:21:45.204Z,100826.72
2022-11-24T10:24:33.111Z,100837.50
2022-11-24T10:27:17.412Z,100832.13
2022-11-24T10:29:51.967Z,100834.81
2022-11-24T10:32:25.783Z,100840.22
2022-11-24T10:35:00.990Z,100837.16
2022-11-24T10:37:36.024Z,100839.69
2022-11-24T10:40:49.152Z,100836.44
2022-11-24T10:43:18.435Z,100839.44
2022-11-24T10:45:50.323Z,100836.19
2022-11-24T10:48:25.500Z,100835.50
2022-11-24T10:51:34.881Z,100839.34
2022-11-24T10:54:16.496Z,100837.94
2022-11-24T10:56:51.375Z,100848.38
2022-11-24T10:59:30.689Z,100846.97
2022-11-24T11:02:14.321Z,100853.06
2022-11-24T11:04:46.268Z,100839.03
2022-11-24T11:07:21.239Z,100836.81
2022-11-24T11:10:20.473Z,100840.84
2022-11-24T11:12:52.556Z,100846.53
2022-11-24T11:15:31.323Z,100842.44
2022-11-24T11:18:04.255Z,100836.66
2022-11-24T11:20:36.660Z,100848.78
2022-11-24T11:23:20.559Z,100851.13
2022-11-24T11:26:21.434Z,100855.50
2022-11-24T11:35:17.336Z,100861.28
2022-11-24T11:37:49.858Z,100861.28
2022-11-24T11:40:27.355Z,100870.22
2022-11-24T11:43:04.005Z,100872.94
2022-11-24T11:45:37.405Z,100873.78
2022-11-24T11:48:37.004Z,100869.00
2022-11-24T11:51:45.290Z,100873.38
2022-11-24T11:54:26.566Z,100881.16
2022-11-24T11:57:16.398Z,100880.78
2022-11-24T12:00:03.624Z,100883.78
2022-11-24T12:02:58.505Z,100888.28
2022-11-24T12:05:47.590Z,100888.53
2022-11-24T12:08:29.396Z,100897.13
2022-11-24T12:11:42.433Z,100897.78
2022-11-24T12:14:52.045Z,100898.44
2022-11-24T12:17:35.265Z,100897.59
2022-11-24T12:20:19.212Z,100909.25
2022-11-24T12:23:11.181Z,100904.53
2022-11-24T12:25:49.801Z,100910.56
2022-11-24T12:28:49.440Z,100914.94
2022-11-24T12:31:33.230Z,100910.22
2022-11-24T12:34:23.293Z,100915.25
2022-11-24T12:37:18.642Z,100915.72
2022-11-24T12:40:02.371Z,100912.38
2022-11-24T12:42:57.528Z,100920.28
2022-11-24T12:45:37.835Z,100926.16
2022-11-24T12:48:18.507Z,100932.03
2022-11-24T12:50:52.244Z,100938.13
2022-11-24T12:53:31.101Z,100936.91
2022-11-24T12:56:09.862Z,100936.72
2022-11-24T12:58:55.780Z,100932.97
2022-11-24T13:01:38.706Z,100934.66
2022-11-24T13:04:30.730Z,100942.13
2022-11-24T13:07:15.476Z,100943.78
2022-11-24T13:10:46.560Z,100940.72
2022-11-24T13:13:16.472Z,100953.88
2022-11-24T13:18:53.343Z,100957.81
2022-11-24T13:21:30.859Z,100960.50
2022-11-24T13:24:20.726Z,100948.84
2022-11-24T13:27:15.383Z,100957.81
2022-11-24T13:29:48.821Z,100967.59
2022-11-24T13:32:23.627Z,100964.69
2022-11-24T13:35:03.269Z,100974.66
2022-11-24T13:37:36.550Z,100976.53
2022-11-24T13:40:11.323Z,100980.91
2022-11-24T13:43:04.090Z,100979.22
2022-11-24T13:45:38.893Z,100975.88
2022-11-24T13:48:19.808Z,100979.22
2022-11-24T13:50:55.084Z,100976.72
2022-11-24T13:53:28.761Z,100985.03
2022-11-24T13:56:11.433Z,100990.44
2022-11-24T13:58:45.418Z,100994.81
2022-11-24T14:01:19.509Z,101006.66
2022-11-24T14:04:28.681Z,101004.97
2022-11-24T14:06:52.244Z,101001.25
2022-11-24T14:09:26.990Z,101004.97
2022-11-24T14:12:20.706Z,101012.44
2022-11-24T14:14:55.707Z,101005.34
2022-11-24T14:17:28.708Z,101010.09
2022-11-24T14:20:17.006Z,101016.53
2022-11-24T14:22:48.865Z,101012.78
2022-11-24T14:25:30.157Z,101013.63
2022-11-24T14:28:02.347Z,101018.88
2022-11-24T14:30:34.276Z,101019.88
2022-11-24T14:33:12.161Z,101018.19
2022-11-24T14:35:45.912Z,101024.47
2022-11-24T14:38:17.868Z,101031.56
2022-11-24T14:40:51.867Z,101037.81
2022-11-24T14:43:29.643Z,101040.34
2022-11-24T14:46:12.191Z,101043.84
2022-11-24T14:48:51.689Z,101048.25
2022-11-24T14:51:34.642Z,101050.09
2022-11-24T14:54:14.925Z,101056.38
2022-11-24T14:56:58.557Z,101049.94
2022-11-24T14:59:39.472Z,101055.34
2022-11-24T15:02:44.617Z,101054.50
2022-11-24T15:05:16.915Z,101055.72
2022-11-24T15:07:50.649Z,101060.47
2022-11-24T15:10:35.442Z,101070.63
2022-11-24T15:13:22.388Z,101070.63
2022-11-24T15:16:02.835Z,101072.66
2022-11-24T15:18:45.188Z,101076.38
2022-11-24T15:21:30.484Z,101084.50
2022-11-24T15:24:20.431Z,101079.25
2022-11-24T15:27:00.066Z,101081.16
2022-11-24T15:29:31.974Z,101077.78
2022-11-24T15:32:14.104Z,101075.06
2022-11-24T15:34:46.056Z,101072.75
2022-11-24T15:37:17.964Z,101084.91
2022-11-24T15:39:50.052Z,101086.13
2022-11-24T15:42:21.902Z,101085.28
2022-11-24T15:44:53.774Z,101086.97
2022-11-24T15:47:25.607Z,101072.44
2022-11-24T15:49:57.530Z,101078.66
2022-11-24T15:52:30.477Z,101086.59
2022-11-24T15:55:02.379Z,101094.72
2022-11-24T15:57:34.249Z,101093.69
2022-11-24T16:00:06.826Z,101093.53
2022-11-24T16:02:44.079Z,101093.31
2022-11-24T16:05:16.981Z,101097.06
2022-11-24T16:07:49.082Z,101093.69
2022-11-24T16:10:26.211Z,101094.06
2022-11-24T16:12:58.172Z,101094.41
2022-11-24T16:15:30.144Z,101087.69
2022-11-24T16:18:03.569Z,101095.50
2022-11-24T16:20:36.126Z,101090.44
2022-11-24T16:23:08.121Z,101089.09
2022-11-24T16:25:39.933Z,101090.69
2022-11-24T16:28:11.859Z,101086.81
2022-11-24T16:30:48.532Z,101092.56
2022-11-24T16:33:20.476Z,101096.66
2022-11-24T16:35:52.333Z,101105.97
2022-11-24T16:38:24.349Z,101098.34
2022-11-24T16:40:56.836Z,101101.44
2022-11-24T16:43:30.175Z,101105.34
2022-11-24T16:46:17.294Z,101110.22
2022-11-24T16:48:51.372Z,101112.28
2022-11-24T16:51:23.785Z,101104.50
2022-11-24T16:53:59.825Z,101106.56
2022-11-24T16:56:32.005Z,101108.59
2022-11-24T16:59:04.680Z,101108.94
2022-11-24T17:01:37.227Z,101106.41
2022-11-24T17:04:12.596Z,101109.28
2022-11-24T17:06:44.808Z,101116.69
2022-11-24T17:09:17.641Z,101118.72
2022-11-24T17:11:49.539Z,101116.19
2022-11-24T17:14:21.368Z,101116.38
2022-11-24T17:16:53.212Z,101121.09
2022-11-24T17:19:25.363Z,101126.66
2022-11-24T17:21:57.720Z,101125.16
2022-11-24T17:24:29.612Z,101128.03
2022-11-24T17:27:01.516Z,101138.34
2022-11-24T17:29:33.478Z,101133.31
2022-11-24T17:32:05.592Z,101140.72
2022-11-24T17:34:37.576Z,101148.50
2022-11-24T17:37:09.440Z,101148.84
2022-11-24T17:39:42.398Z,101158.81
2022-11-24T17:42:14.338Z,101159.97
2022-11-24T17:44:46.247Z,101156.94
2022-11-24T17:47:18.107Z,101159.31
2022-11-24T17:49:49.934Z,101168.44
2022-11-24T17:52:21.880Z,101160.00
2022-11-24T17:54:53.681Z,101169.97
2022-11-24T17:57:26.274Z,101164.72
2022-11-24T17:59:58.118Z,101166.72
2022-11-24T18:02:30.144Z,101173.16
2022-11-24T18:05:01.977Z,101169.78
2022-11-24T18:07:36.536Z,101185.47
2022-11-24T18:10:08.949Z,101178.56
2022-11-24T18:12:41.090Z,101185.13
2022-11-24T18:15:12.942Z,101179.91
2022-11-24T18:17:44.763Z,101180.25
2022-11-24T18:20:16.687Z,101189.34
2022-11-24T18:23:05.938Z,101191.03
2022-11-24T18:25:38.134Z,101196.44
2022-11-24T18:28:09.932Z,101189.50
2022-11-24T18:30:41.752Z,101198.44
2022-11-24T18:33:13.803Z,101185.13
2022-11-24T18:36:07.001Z,101194.22
2022-11-24T18:38:38.912Z,101194.41
2022-11-24T18:41:12.889Z,101193.72
2022-11-24T18:43:44.862Z,101193.72
2022-11-24T18:46:17.606Z,101195.75
2022-11-24T18:48:51.914Z,101191.38
2022-11-24T18:51:23.793Z,101194.38
2022-11-24T18:53:57.856Z,101204.34
2022-11-24T18:56:30.119Z,101205.50
2022-11-24T18:59:02.031Z,101204.16
2022-11-24T19:01:34.067Z,101203.31
2022-11-24T19:04:05.868Z,101216.97
2022-11-24T19:06:38.036Z,101215.44
2022-11-24T19:09:18.394Z,101215.59
2022-11-24T19:11:50.519Z,101207.66
2022-11-24T19:14:22.422Z,101212.22
2022-11-24T19:16:55.117Z,101203.47
2022-11-24T19:19:28.876Z,101206.00
2022-11-24T19:22:01.186Z,101204.47
2022-11-24T19:24:33.315Z,101203.78
2022-11-24T19:27:05.370Z,101209.19
2022-11-24T19:29:42.853Z,101211.22
2022-11-24T19:32:15.337Z,101208.53
2022-11-24T19:34:47.156Z,101199.59
2022-11-24T19:37:19.022Z,101213.22
2022-11-24T19:39:50.921Z,101207.16
2022-11-24T19:42:22.762Z,101215.25
2022-11-24T19:44:56.736Z,101213.56
2022-11-24T19:47:29.050Z,101211.88
2022-11-24T19:50:02.140Z,101220.97
2022-11-24T19:52:35.729Z,101226.34
2022-11-24T19:55:07.804Z,101232.78
2022-11-24T19:57:39.682Z,101227.53
2022-11-24T20:00:12.328Z,101226.69
2022-11-24T20:02:44.236Z,101226.69
2022-11-24T20:05:16.208Z,101232.94
2022-11-24T20:07:48.099Z,101241.00
2022-11-24T20:10:20.103Z,101248.94
2022-11-24T20:12:51.927Z,101247.06
2022-11-24T20:15:23.690Z,101253.31
2022-11-24T20:17:55.570Z,101255.69
2022-11-24T20:20:27.455Z,101258.38
2022-11-24T20:22:59.500Z,101253.00
2022-11-24T20:25:31.405Z,101253.00
2022-11-24T20:28:03.427Z,101252.31
2022-11-24T20:30:35.305Z,101257.84
2022-11-24T20:33:07.088Z,101255.34
2022-11-24T20:35:38.929Z,101257.34
2022-11-24T20:38:11.885Z,101257.69
2022-11-24T20:40:43.747Z,101263.38
2022-11-24T20:43:15.620Z,101260.03
2022-11-24T20:45:47.420Z,101265.72
2022-11-24T20:48:19.297Z,101271.44
2022-11-24T20:50:51.585Z,101272.78
2022-11-24T20:53:23.777Z,101270.38
2022-11-24T20:56:06.112Z,101272.72
2022-11-24T20:58:39.141Z,101275.91
2022-11-24T21:01:13.548Z,101271.69
2022-11-24T21:03:46.657Z,101277.38
2022-11-24T21:06:18.481Z,101275.34
2022-11-24T21:08:50.930Z,101286.28
2022-11-24T21:11:23.483Z,101279.34
2022-11-24T21:13:55.864Z,101277.97
2022-11-24T21:16:30.501Z,101276.63
2022-11-24T21:19:06.039Z,101280.63
2022-11-24T21:21:38.511Z,101287.34
2022-11-24T21:24:23.429Z,101296.06
2022-11-24T21:26:55.234Z,101300.03
2022-11-24T21:29:27.111Z,101307.56
2022-11-24T21:31:58.969Z,101302.66
2022-11-24T21:34:30.875Z,101309.34
2022-11-24T21:37:02.708Z,101312.38
2022-11-24T21:39:36.422Z,101312.66
2022-11-24T21:42:08.259Z,101313.84
2022-11-24T21:44:40.131Z,101312.63
2022-11-24T21:47:12.221Z,101316.63
2022-11-24T21:49:44.372Z,101316.38
2022-11-24T21:52:16.181Z,101326.63
2022-11-24T21:54:48.008Z,101322.38
2022-11-24T21:57:19.858Z,101322.69
2022-11-24T21:59:52.214Z,101322.16
2022-11-24T22:02:24.121Z,101317.09
2022-11-24T22:04:55.996Z,101328.16
2022-11-24T22:07:32.316Z,101333.84
2022-11-24T22:10:04.728Z,101327.91
2022-11-24T22:12:36.606Z,101325.41
2022-11-24T22:15:09.071Z,101333.47
2022-11-24T22:17:40.887Z,101331.59
2022-11-24T22:20:12.851Z,101333.63
2022-11-24T22:22:44.821Z,101327.38
2022-11-24T22:25:16.785Z,101328.38
2022-11-24T22:27:48.671Z,101325.00
2022-11-24T22:30:20.488Z,101334.06
2022-11-24T22:32:53.638Z,101323.47
2022-11-24T22:35:25.499Z,101320.91
2022-11-24T22:37:57.319Z,101322.59
2022-11-24T22:40:29.319Z,101324.63
2022-11-24T22:43:01.238Z,101332.84
2022-11-24T22:45:35.223Z,101332.13
2022-11-24T22:48:07.043Z,101330.44
2022-11-24T22:50:38.826Z,101326.06
2022-11-24T22:53:10.718Z,101323.53
2022-11-24T22:55:42.555Z,101318.47
2022-11-24T22:58:14.395Z,101329.22
2022-11-24T23:00:46.214Z,101327.53
2022-11-24T23:03:18.263Z,101319.47
2022-11-24T23:05:50.268Z,101322.16
2022-11-24T23:08:22.081Z,101316.75
2022-11-24T23:11:07.787Z,101312.38
2022-11-24T23:13:40.149Z,101312.53
2022-11-24T23:16:14.443Z,101310.84
2022-11-24T23:18:52.405Z,101302.22
2022-11-24T23:21:28.041Z,101309.63
2022-11-24T23:24:01.800Z,101305.50
2022-11-24T23:26:37.303Z,101313.03
2022-11-24T23:29:10.156Z,101306.13
2022-11-24T23:31:42.303Z,101310.94
2022-11-24T23:34:14.281Z,101308.44
2022-11-24T23:36:46.206Z,101302.50
2022-11-24T23:39:18.119Z,101311.84
2022-11-24T23:41:49.926Z,101303.25
2022-11-24T23:44:22.048Z,101311.63
2022-11-24T23:46:54.112Z,101311.91
2022-11-24T23:49:25.959Z,101304.16
2022-11-24T23:51:57.811Z,101301.75
2022-11-24T23:54:29.599Z,101300.75
2022-11-24T23:57:01.436Z,101295.38
2022-11-24T23:59:33.334Z,101302.47
